Time;durP1;ratioP1;P1;durP2;ratioP2;P2;SDS_P1;SDS_P2;PMS_P1;PMS_P2;Temp;Humidity;BMP_temperature;BMP_pressure;BME280_temperature;BME280_humidity;BME280_pressure;Samples;Min_cycle;Max_cycle;Signal;HPM_P1;HPM_P2
2022/03/08 00:00:22;;;;;;;16.07;14.37;;;;;;;5.27;60.64;101491.59;2090098;28;20173;-77
2022/03/08 00:01:23;;;;;;;16.52;14.48;;;;;;;5.27;61.07;101489.66;2089247;28;20197;-76
2022/03/08 00:02:23;;;;;;;16.33;14.63;;;;;;;4.62;61.13;101386.84;2088848;28;20682;-76
2022/03/08 00:03:24;;;;;;;16.63;14.67;;;;;;;5.28;60.98;101490.47;2089337;28;20189;-76
2022/03/08 00:04:25;;;;;;;17.20;15.40;;;;;;;5.28;61.09;101491.25;2090238;28;20170;-76
2022/03/08 00:05:27;;;;;;;16.58;14.77;;;;;;;5.28;60.45;101490.47;2090106;28;20578;-76
2022/03/08 00:06:28;;;;;;;16.42;14.63;;;;;;;4.80;61.03;101426.31;2090049;28;20264;-76
2022/03/08 00:07:28;;;;;;;16.20;14.50;;;;;;;5.30;61.13;101488.13;2089980;28;20247;-76
2022/03/08 00:08:29;;;;;;;16.60;14.80;;;;;;;4.08;61.16;101308.94;2089909;28;20469;-76
2022/03/08 00:09:29;;;;;;;16.23;14.40;;;;;;;5.26;60.91;101510.06;2089761;28;20204;-76
2022/03/08 00:10:30;;;;;;;15.77;14.07;;;;;;;5.24;61.47;101484.91;2090133;28;20174;-76
2022/03/08 00:11:30;;;;;;;15.50;13.90;;;;;;;5.21;61.50;101507.66;2090094;28;20269;-76
2022/03/08 00:12:31;;;;;;;16.27;14.57;;;;;;;5.18;61.01;101491.13;2089586;28;20180;-76
2022/03/08 00:13:31;;;;;;;15.97;14.30;;;;;;;5.06;61.42;101489.41;2089791;28;20184;-76
2022/03/08 00:14:34;;;;;;;16.07;14.37;;;;;;;5.06;61.53;101499.59;2090079;28;20173;-76
2022/03/08 00:15:34;;;;;;;16.80;15.00;;;;;;;5.03;62.13;101481.91;2089853;28;20183;-76
2022/03/08 00:16:35;;;;;;;17.30;14.43;;;;;;;5.01;62.11;101478.75;2089125;28;20176;-76
2022/03/08 00:17:36;;;;;;;16.33;14.40;;;;;;;3.88;61.99;101319.25;2089404;28;20197;-76
2022/03/08 00:18:38;;;;;;;15.63;14.03;;;;;;;4.96;62.48;101494.75;2089826;28;20207;-76
2022/03/08 00:19:38;;;;;;;16.25;13.73;;;;;;;4.88;62.56;101496.63;2089771;28;20185;-76
2022/03/08 00:20:39;;;;;;;16.30;14.27;;;;;;;4.86;62.35;101496.22;2089879;28;20177;-76
2022/03/08 00:21:40;;;;;;;15.47;13.87;;;;;;;4.88;62.95;101490.38;2090024;28;20176;-76
2022/03/08 00:22:41;;;;;;;15.85;14.13;;;;;;;4.88;62.41;101495.84;2089234;28;20173;-76
2022/03/08 00:23:42;;;;;;;17.07;14.13;;;;;;;4.74;62.35;101482.72;2089809;28;20195;-76
2022/03/08 00:24:43;;;;;;;15.80;14.10;;;;;;;4.70;62.91;101492.06;2089856;28;20256;-76
2022/03/08 00:25:43;;;;;;;16.40;14.30;;;;;;;4.55;63.28;101495.78;2090088;28;20688;-76
2022/03/08 00:26:44;;;;;;;15.93;14.23;;;;;;;4.33;64.24;101485.66;2089842;28;20175;-76
2022/03/08 00:27:48;;;;;;;17.07;14.27;;;;;;;4.14;64.06;101467.34;2090055;28;20198;-76
2022/03/08 00:28:48;;;;;;;17.35;15.48;;;;;;;4.14;64.78;101486.56;2089655;28;20179;-76
2022/03/08 00:29:49;;;;;;;16.73;14.93;;;;;;;4.12;64.86;101493.56;2089491;28;20173;-76
2022/03/08 00:30:49;;;;;;;15.30;13.70;;;;;;;3.59;64.84;101404.19;2089889;28;20243;-76
2022/03/08 00:31:50;;;;;;;17.30;15.30;;;;;;;3.52;64.47;101382.91;2089412;28;20272;-76
2022/03/08 00:32:52;;;;;;;16.73;14.93;;;;;;;4.22;64.84;101473.75;2089794;28;20184;-76
2022/03/08 00:33:52;;;;;;;17.48;15.68;;;;;;;4.35;64.28;101484.13;2089899;28;20165;-76
2022/03/08 00:34:53;;;;;;;16.73;14.60;;;;;;;4.35;64.02;101464.91;2089794;28;20177;-76
2022/03/08 00:35:53;;;;;;;16.83;14.60;;;;;;;4.51;64.34;101483.97;2090000;28;20172;-76
2022/03/08 00:36:54;;;;;;;16.07;14.27;;;;;;;4.44;64.02;101481.91;2089698;28;20189;-76
2022/03/08 00:37:56;;;;;;;16.03;14.33;;;;;;;4.47;64.20;101489.41;2089782;28;20662;-76
2022/03/08 00:38:57;;;;;;;15.63;13.85;;;;;;;4.54;64.77;101485.97;2089382;28;20174;-76
2022/03/08 00:39:57;;;;;;;16.67;14.40;;;;;;;3.42;64.48;101301.34;2089833;28;20180;-76
2022/03/08 00:40:58;;;;;;;16.10;14.40;;;;;;;4.63;64.54;101490.03;2089849;28;20264;-76
2022/03/08 00:41:58;;;;;;;15.90;14.20;;;;;;;4.12;64.32;101414.00;2088910;28;20702;-76
2022/03/08 00:42:59;;;;;;;17.13;14.20;;;;;;;4.68;63.49;101508.13;2089702;28;20581;-76
2022/03/08 00:44:00;;;;;;;16.92;14.02;;;;;;;4.72;63.49;101484.28;2089800;28;20170;-76
2022/03/08 00:45:01;;;;;;;15.47;13.87;;;;;;;4.75;63.70;101480.75;2089773;28;20386;-76
2022/03/08 00:46:02;;;;;;;16.40;14.07;;;;;;;4.77;63.19;101487.47;2089667;28;20189;-76
2022/03/08 00:47:03;;;;;;;15.88;14.18;;;;;;;4.78;62.98;101480.81;2089670;28;20704;-76
2022/03/08 00:48:03;;;;;;;16.70;13.97;;;;;;;4.81;62.76;101482.00;2089818;28;20622;-76
2022/03/08 00:49:04;;;;;;;15.73;13.80;;;;;;;4.86;62.68;101492.66;2089066;28;20170;-76
2022/03/08 00:50:08;;;;;;;15.30;13.70;;;;;;;4.83;62.24;101488.72;2089990;28;20426;-76
2022/03/08 00:51:10;;;;;;;15.75;13.57;;;;;;;4.33;62.58;101409.63;2089491;28;20220;-76
2022/03/08 00:52:10;;;;;;;15.40;13.80;;;;;;;3.92;62.07;101338.50;2089249;28;20183;-76
2022/03/08 00:53:11;;;;;;;17.37;14.23;;;;;;;3.91;62.26;101351.41;2089858;28;20550;-76
2022/03/08 00:54:12;;;;;;;16.93;15.10;;;;;;;4.73;62.65;101483.88;2089178;28;20174;-77
2022/03/08 00:55:13;;;;;;;17.73;14.40;;;;;;;4.73;62.56;101481.13;2089649;28;20173;-76
2022/03/08 00:56:14;;;;;;;17.38;14.27;;;;;;;4.73;62.79;101486.63;2089774;28;20564;-76
2022/03/08 00:57:14;;;;;;;15.00;13.40;;;;;;;4.70;62.77;101479.16;2089007;28;20181;-76
2022/03/08 00:58:15;;;;;;;17.30;13.67;;;;;;;4.72;62.92;101506.25;2089083;28;20247;-76
2022/03/08 00:59:16;;;;;;;15.53;13.20;;;;;;;4.73;62.56;101486.63;2089106;28;20179;-76
2022/03/08 01:00:19;;;;;;;15.37;13.33;;;;;;;4.70;63.01;101479.16;2089774;28;20653;-76
2022/03/08 01:01:20;;;;;;;16.38;13.65;;;;;;;4.75;62.66;101489.00;2088671;28;20679;-76
2022/03/08 01:02:20;;;;;;;15.57;13.10;;;;;;;4.76;62.40;101479.59;2088642;28;20173;-76
2022/03/08 01:03:21;;;;;;;15.40;13.50;;;;;;;4.44;62.62;101440.75;2089448;28;20227;-76
2022/03/08 01:04:22;;;;;;;16.27;13.73;;;;;;;4.77;62.48;101487.47;2089704;28;20830;-76
2022/03/08 01:05:22;;;;;;;16.07;13.00;;;;;;;4.10;62.48;101388.91;2088844;28;20229;-76
2022/03/08 01:06:23;;;;;;;17.17;13.87;;;;;;;4.08;61.95;101372.03;2088945;28;20259;-76
2022/03/08 01:07:23;;;;;;;17.00;13.03;;;;;;;4.79;62.12;101484.34;2089497;28;20257;-76
2022/03/08 01:08:24;;;;;;;15.33;13.07;;;;;;;4.62;62.37;101457.47;2089616;28;20176;-76
2022/03/08 01:09:24;;;;;;;15.93;13.27;;;;;;;4.75;62.83;101481.56;2089136;28;20178;-76
2022/03/08 01:10:26;;;;;;;15.93;13.63;;;;;;;4.75;62.21;101486.25;2089634;28;20183;-76
2022/03/08 01:11:27;;;;;;;16.48;13.27;;;;;;;4.75;62.77;101480.75;2089605;28;20179;-76
2022/03/08 01:12:27;;;;;;;15.70;13.67;;;;;;;4.45;62.93;101445.06;2088988;28;20181;-76
2022/03/08 01:13:28;;;;;;;15.53;13.07;;;;;;;4.69;62.39;101488.56;2089529;28;20182;-76
2022/03/08 01:14:28;;;;;;;15.67;13.60;;;;;;;4.18;62.23;101409.78;2088893;28;20259;-76
2022/03/08 01:15:29;;;;;;;14.03;12.53;;;;;;;4.08;62.54;101404.94;2088819;28;20180;-76
2022/03/08 01:16:30;;;;;;;16.03;13.90;;;;;;;4.29;62.27;101430.72;2089814;28;20206;-76
2022/03/08 01:17:30;;;;;;;16.20;13.27;;;;;;;4.69;62.64;101482.25;2089427;28;20264;-76
2022/03/08 01:18:31;;;;;;;15.63;12.60;;;;;;;4.43;62.45;101457.59;2089391;28;20218;-76
2022/03/08 01:19:31;;;;;;;14.87;13.20;;;;;;;3.81;62.90;101364.97;2089137;28;20176;-76
2022/03/08 01:20:32;;;;;;;14.73;13.13;;;;;;;4.64;62.57;101485.31;2089532;28;20239;-75
2022/03/08 01:21:37;;;;;;;14.77;13.10;;;;;;;4.43;62.82;101468.56;2089548;28;20260;-76
2022/03/08 01:22:38;;;;;;;15.43;12.82;;;;;;;4.29;62.94;101430.72;2088943;28;20179;-76
2022/03/08 01:23:39;;;;;;;14.43;12.90;;;;;;;4.66;62.66;101489.28;2089563;28;20808;-76
2022/03/08 01:24:39;;;;;;;14.37;12.43;;;;;;;4.69;63.25;101485.81;2089302;28;20667;-76
2022/03/08 01:25:40;;;;;;;14.40;12.83;;;;;;;4.50;62.76;101447.50;2089565;28;20265;-76
2022/03/08 01:26:41;;;;;;;14.77;12.50;;;;;;;4.66;62.37;101500.25;2089243;28;20213;-76
2022/03/08 01:27:42;;;;;;;13.57;12.17;;;;;;;4.63;62.41;101481.00;2089502;28;20195;-76
2022/03/08 01:28:43;;;;;;;14.60;13.00;;;;;;;4.65;62.75;101484.97;2089294;28;20178;-76
2022/03/08 01:29:43;;;;;;;14.37;12.67;;;;;;;4.66;63.09;101477.53;2089183;28;20176;-76
2022/03/08 01:30:44;;;;;;;14.27;12.77;;;;;;;3.34;62.56;101272.22;2089333;28;20676;-76
2022/03/08 01:31:45;;;;;;;14.93;12.40;;;;;;;4.71;62.74;101479.91;2089129;28;20718;-76
2022/03/08 01:32:45;;;;;;;14.80;12.83;;;;;;;4.67;62.92;101488.13;2089203;28;20174;-76
2022/03/08 01:33:46;;;;;;;14.00;12.50;;;;;;;4.68;62.71;101476.00;2089326;28;20210;-76
2022/03/08 01:34:46;;;;;;;14.40;12.20;;;;;;;4.71;62.28;101480.72;2089292;28;20333;-76
2022/03/08 01:35:47;;;;;;;14.50;12.90;;;;;;;4.68;62.10;101484.22;2089708;28;20182;-76
2022/03/08 01:36:47;;;;;;;13.70;12.10;;;;;;;4.68;61.78;101476.00;2089392;28;20184;-76
2022/03/08 01:37:48;;;;;;;13.47;12.00;;;;;;;4.69;62.30;101479.50;2089402;28;20182;-76
2022/03/08 01:38:49;;;;;;;13.40;11.73;;;;;;;4.61;62.22;101484.13;2089127;28;20514;-77
2022/03/08 01:39:49;;;;;;;12.60;11.17;;;;;;;4.63;62.77;101481.00;2089050;28;20174;-76
2022/03/08 01:40:50;;;;;;;15.40;11.80;;;;;;;4.63;62.01;101481.81;2089188;28;20187;-76
2022/03/08 01:41:50;;;;;;;13.93;11.63;;;;;;;4.33;62.23;101436.28;2088877;28;20274;-76
2022/03/08 01:42:51;;;;;;;14.07;12.30;;;;;;;3.74;62.20;101343.72;2089268;28;20183;-76
2022/03/08 01:43:52;;;;;;;12.83;11.27;;;;;;;4.66;62.37;101485.75;2089311;28;20183;-76
2022/03/08 01:44:52;;;;;;;14.80;12.10;;;;;;;4.68;62.52;101483.44;2089273;28;20770;-76
2022/03/08 01:45:53;;;;;;;16.53;11.73;;;;;;;4.20;62.03;101405.50;2089418;28;20240;-76
2022/03/08 01:46:53;;;;;;;15.87;12.20;;;;;;;4.65;62.12;101471.22;2089274;28;20195;-76
2022/03/08 01:47:54;;;;;;;17.70;11.43;;;;;;;3.92;62.29;101380.44;2089299;28;20183;-76
2022/03/08 01:48:55;;;;;;;13.37;11.90;;;;;;;4.07;62.64;101393.19;2088694;28;20184;-76
2022/03/08 01:49:55;;;;;;;13.43;11.73;;;;;;;4.78;62.67;101493.75;2089409;28;20182;-76
2022/03/08 01:50:56;;;;;;;13.17;11.63;;;;;;;4.76;61.97;101487.84;2089163;28;20190;-76
2022/03/08 01:51:57;;;;;;;13.23;11.77;;;;;;;4.46;62.21;101440.38;2088828;28;20580;-76
2022/03/08 01:52:58;;;;;;;13.93;12.43;;;;;;;4.79;62.06;101479.66;2089166;28;21011;-76
2022/03/08 01:53:59;;;;;;;13.77;11.38;;;;;;;4.36;62.00;101433.56;2089186;28;20178;-76
2022/03/08 01:54:59;;;;;;;12.93;11.53;;;;;;;4.63;61.94;101468.09;2089053;28;20184;-76
2022/03/08 01:56:00;;;;;;;13.30;11.77;;;;;;;4.73;61.67;101481.13;2089061;28;20180;-76
2022/03/08 01:57:01;;;;;;;12.40;11.10;;;;;;;4.72;62.18;101487.00;2089235;28;20402;-76
2022/03/08 01:58:02;;;;;;;13.38;11.77;;;;;;;4.68;62.37;101486.97;2088671;28;20273;-76
2022/03/08 01:59:03;;;;;;;12.73;11.23;;;;;;;4.73;61.88;101510.56;2087856;28;20194;-76
2022/03/08 02:00:07;;;;;;;13.40;11.27;;;;;;;4.75;62.51;101500.78;2088539;28;20198;-76
2022/03/08 02:01:08;;;;;;;14.57;11.90;;;;;;;4.78;61.33;101483.56;2089162;28;20188;-76
2022/03/08 02:02:09;;;;;;;13.57;11.97;;;;;;;4.77;61.73;101478.44;2088698;28;20661;-76
2022/03/08 02:03:09;;;;;;;12.35;10.77;;;;;;;4.55;61.96;101454.59;2088985;28;20542;-76
2022/03/08 02:04:12;;;;;;;13.40;11.70;;;;;;;3.50;61.98;101286.56;2089164;28;20278;-76
2022/03/08 02:05:12;;;;;;;13.70;11.38;;;;;;;4.58;62.09;101493.09;2089131;28;20598;-76
2022/03/08 02:06:13;;;;;;;12.30;10.93;;;;;;;3.36;61.78;101293.78;2089218;28;20290;-76
2022/03/08 02:07:14;;;;;;;12.33;11.03;;;;;;;4.63;62.16;101467.28;2088982;28;20216;-76
2022/03/08 02:08:14;;;;;;;13.20;11.67;;;;;;;4.06;61.86;101379.84;2089204;28;20269;-76
2022/03/08 02:09:15;;;;;;;14.07;11.57;;;;;;;3.86;62.00;101353.69;2088569;28;20189;-76
2022/03/08 02:10:15;;;;;;;12.43;11.03;;;;;;;4.68;62.18;101480.69;2088442;28;20175;-76
2022/03/08 02:11:16;;;;;;;12.53;11.23;;;;;;;4.72;62.26;101487.78;2088519;28;20190;-76
2022/03/08 02:12:17;;;;;;;13.60;11.63;;;;;;;4.75;61.96;101484.31;2088046;28;20226;-77
2022/03/08 02:13:17;;;;;;;12.80;11.40;;;;;;;4.75;61.52;101487.06;2088413;28;20679;-76
2022/03/08 02:14:18;;;;;;;12.20;10.90;;;;;;;4.77;61.81;101487.47;2089163;28;20237;-76
2022/03/08 02:15:25;;;;;;;13.35;11.32;;;;;;;4.74;62.34;101485.47;2089169;28;20269;-76
2022/03/08 02:16:25;;;;;;;11.90;10.60;;;;;;;4.75;61.90;101489.81;2089168;28;20182;-76
2022/03/08 02:17:26;;;;;;;12.67;11.37;;;;;;;4.74;62.12;101487.44;2088446;28;20191;-76
2022/03/08 02:18:26;;;;;;;12.50;11.20;;;;;;;4.72;62.73;101484.28;2088289;28;20725;-76
2022/03/08 02:19:27;;;;;;;13.87;12.37;;;;;;;4.71;62.70;101483.47;2096250;28;20665;-76
2022/03/08 02:20:29;;;;;;;12.70;11.40;;;;;;;4.72;62.80;101509.75;2096878;28;20665;-76
2022/03/08 02:21:35;;;;;;;13.20;11.38;;;;;;;3.83;63.14;101359.91;2089014;28;20171;-76
2022/03/08 02:22:36;;;;;;;12.63;11.32;;;;;;;4.64;63.22;101474.34;2088390;28;20259;-76
2022/03/08 02:23:36;;;;;;;12.35;10.85;;;;;;;4.73;63.62;101499.56;2088883;28;20210;-76
2022/03/08 02:24:37;;;;;;;12.93;11.23;;;;;;;4.64;62.71;101471.59;2089174;28;20189;-76
2022/03/08 02:25:38;;;;;;;14.07;12.13;;;;;;;4.33;62.05;101428.84;2088972;28;20189;-76
2022/03/08 02:26:38;;;;;;;12.77;11.20;;;;;;;4.57;61.56;101469.53;2088331;28;20210;-76
2022/03/08 02:27:51;;;;;;;12.57;11.20;;;;;;;3.32;61.37;101284.72;2088478;28;20216;-76
2022/03/08 02:28:51;;;;;;;12.10;10.50;;;;;;;4.60;61.38;101485.28;2088709;28;20189;-76
2022/03/08 02:29:52;;;;;;;12.57;11.10;;;;;;;4.60;61.44;101482.53;2089038;28;20697;-76
2022/03/08 02:30:53;;;;;;;12.40;11.10;;;;;;;4.47;61.13;101472.94;2088914;28;20660;-76
2022/03/08 02:31:55;;;;;;;13.40;11.27;;;;;;;4.52;61.42;101480.84;2088574;28;20196;-76
2022/03/08 02:32:56;;;;;;;12.18;10.88;;;;;;;4.51;61.05;101483.97;2088948;28;20613;-76
2022/03/08 02:33:57;;;;;;;12.87;11.40;;;;;;;4.48;60.82;101484.72;2088363;28;20177;-76
2022/03/08 02:35:05;;;;;;;12.67;11.27;;;;;;;4.41;61.28;101484.63;2088384;28;20190;-76
2022/03/08 02:36:06;;;;;;;12.95;11.35;;;;;;;4.44;61.55;101483.84;2089091;28;20175;-76
2022/03/08 02:37:13;;;;;;;12.38;11.07;;;;;;;4.33;60.70;101488.41;2088867;28;20175;-76
2022/03/08 02:38:13;;;;;;;12.27;10.95;;;;;;;4.33;61.41;101483.72;2088938;28;20612;-76
2022/03/08 02:39:14;;;;;;;12.70;11.37;;;;;;;4.29;60.26;101485.63;2088373;28;20197;-76
2022/03/08 02:40:17;;;;;;;12.30;10.97;;;;;;;4.32;60.33;101493.09;2089040;28;20563;-76
2022/03/08 02:41:18;;;;;;;13.15;11.75;;;;;;;4.35;60.69;101488.81;2088965;28;20190;-76
2022/03/08 02:42:18;;;;;;;13.43;11.80;;;;;;;4.30;60.63;101491.88;2088507;28;20174;-76
2022/03/08 02:43:19;;;;;;;14.03;12.07;;;;;;;3.50;59.31;101365.25;2088778;28;20248;-76
2022/03/08 02:44:19;;;;;;;13.27;11.87;;;;;;;3.35;60.25;101368.91;2089059;28;20648;-76
2022/03/08 02:45:21;;;;;;;13.97;12.00;;;;;;;4.21;59.87;101491.38;2088921;28;20176;-76
2022/03/08 02:46:21;;;;;;;14.25;12.55;;;;;;;3.89;59.00;101448.91;2088972;28;20183;-76
2022/03/08 02:47:22;;;;;;;15.10;12.27;;;;;;;4.14;59.04;101492.03;2088176;28;20210;-76
2022/03/08 02:48:26;;;;;;;14.50;12.87;;;;;;;4.11;59.37;101492.75;2088405;28;20240;-76
2022/03/08 02:49:27;;;;;;;13.73;12.32;;;;;;;4.12;58.97;101490.81;2088578;28;20749;-76
2022/03/08 02:50:27;;;;;;;13.40;11.97;;;;;;;4.11;59.43;101490.00;2089037;28;20674;-76
2022/03/08 02:51:28;;;;;;;14.53;12.13;;;;;;;3.97;59.47;101473.34;2088756;28;20609;-76
2022/03/08 02:52:28;;;;;;;13.43;12.03;;;;;;;4.08;59.50;101488.03;2088392;28;20182;-75
2022/03/08 02:53:29;;;;;;;14.40;12.90;;;;;;;2.85;59.66;101304.28;2088802;28;20175;-76
2022/03/08 02:54:30;;;;;;;15.00;13.10;;;;;;;4.00;59.26;101491.03;2088919;28;20221;-76
2022/03/08 02:55:33;;;;;;;14.10;12.50;;;;;;;3.95;59.14;101488.59;2088814;28;20183;-76
2022/03/08 02:56:33;;;;;;;14.35;11.90;;;;;;;2.91;59.35;101324.72;2089051;28;20217;-76
2022/03/08 02:57:34;;;;;;;13.53;11.67;;;;;;;3.75;59.01;101467.88;2089005;28;20173;-76
2022/03/08 02:58:35;;;;;;;14.80;12.77;;;;;;;3.87;59.97;101493.16;2088658;28;20234;-76
2022/03/08 02:59:35;;;;;;;13.80;12.30;;;;;;;3.84;59.61;101479.41;2088541;28;20502;-76
2022/03/08 03:00:36;;;;;;;14.93;12.60;;;;;;;3.79;59.72;101510.63;2088699;28;20189;-76
2022/03/08 03:01:37;;;;;;;14.10;12.60;;;;;;;3.75;59.58;101487.06;2088893;28;20204;-76
2022/03/08 03:02:37;;;;;;;14.80;12.83;;;;;;;3.57;59.34;101464.84;2087667;28;20180;-76
2022/03/08 03:03:38;;;;;;;14.07;12.13;;;;;;;3.71;59.19;101486.22;2088198;28;20188;-76
2022/03/08 03:04:38;;;;;;;14.17;12.13;;;;;;;1.49;59.31;101146.53;2088722;28;20189;-76
2022/03/08 03:05:39;;;;;;;15.03;13.43;;;;;;;3.67;58.97;101494.38;2089142;28;20178;-76
2022/03/08 03:06:39;;;;;;;15.30;12.83;;;;;;;3.60;59.22;101496.19;2088771;28;20177;-76
2022/03/08 03:07:41;;;;;;;14.37;12.73;;;;;;;2.96;59.40;101401.09;2088943;28;20718;-76
2022/03/08 03:08:42;;;;;;;15.07;13.10;;;;;;;2.94;58.95;101408.06;2088531;28;20587;-77
2022/03/08 03:09:42;;;;;;;16.80;14.63;;;;;;;3.42;58.87;101498.59;2089751;28;20256;-77
2022/03/08 03:10:43;;;;;;;15.07;13.47;;;;;;;3.11;59.85;101462.38;2090450;28;20177;-76
2022/03/08 03:11:43;;;;;;;15.97;14.27;;;;;;;3.32;60.66;101504.69;2090332;28;20650;-76
2022/03/08 03:12:45;;;;;;;15.00;13.30;;;;;;;3.23;59.65;101508.81;2089460;28;20193;-76
2022/03/08 03:13:45;;;;;;;15.90;13.95;;;;;;;3.20;59.90;101507.59;2089815;28;20266;-76
2022/03/08 03:14:46;;;;;;;16.20;14.13;;;;;;;3.05;59.90;101510.38;2090482;28;20172;-77
2022/03/08 03:15:46;;;;;;;15.77;14.10;;;;;;;2.99;59.96;101504.38;2090568;28;20207;-77
2022/03/08 03:16:47;;;;;;;16.70;14.47;;;;;;;2.09;59.75;101383.63;2090439;28;20184;-76
2022/03/08 03:17:48;;;;;;;17.83;14.93;;;;;;;2.90;60.38;101520.25;2090559;28;20615;-76
2022/03/08 03:18:49;;;;;;;17.70;14.70;;;;;;;2.87;60.68;101515.50;2090125;28;20710;-76
2022/03/08 03:19:50;;;;;;;17.43;15.53;;;;;;;2.85;59.38;101515.06;2090276;28;20581;-76
2022/03/08 03:20:50;;;;;;;18.13;14.87;;;;;;;2.67;60.02;101497.44;2090311;28;20548;-76
2022/03/08 03:21:51;;;;;;;17.27;14.80;;;;;;;2.81;60.42;101529.81;2090310;28;20185;-76
2022/03/08 03:22:52;;;;;;;16.93;14.77;;;;;;;2.48;60.71;101475.56;2090362;28;20262;-76
2022/03/08 03:23:52;;;;;;;16.00;14.20;;;;;;;2.85;60.83;101525.22;2090430;28;20234;-77
2022/03/08 03:24:53;;;;;;;15.77;13.83;;;;;;;2.87;60.59;101526.44;2090523;28;20256;-77
2022/03/08 03:25:53;;;;;;;16.07;13.80;;;;;;;2.89;60.55;101546.06;2090185;28;20234;-76
2022/03/08 03:26:54;;;;;;;17.33;14.73;;;;;;;2.87;60.71;101529.16;2090342;28;20181;-76
2022/03/08 03:27:54;;;;;;;16.93;14.13;;;;;;;1.97;60.56;101380.22;2090277;28;20513;-76
2022/03/08 03:28:55;;;;;;;16.07;14.10;;;;;;;2.92;60.50;101528.88;2089957;28;20209;-76
2022/03/08 03:29:55;;;;;;;16.73;14.20;;;;;;;2.83;60.67;101527.53;2090378;28;20175;-76
2022/03/08 03:30:56;;;;;;;17.57;14.87;;;;;;;2.65;61.01;101507.16;2089638;28;20581;-76
2022/03/08 03:31:56;;;;;;;17.47;14.40;;;;;;;2.22;60.49;101420.63;2089330;28;20583;-77
2022/03/08 03:32:57;;;;;;;17.07;14.70;;;;;;;2.93;61.04;101525.00;2090233;28;20723;-76
2022/03/08 03:33:57;;;;;;;17.97;15.20;;;;;;;2.90;60.57;101525.72;2090370;28;20215;-76
2022/03/08 03:34:58;;;;;;;17.67;14.67;;;;;;;2.19;60.73;101423.28;2090271;28;20188;-76
2022/03/08 03:35:59;;;;;;;17.60;14.57;;;;;;;2.94;59.95;101531.28;2089773;28;20199;-77
2022/03/08 03:36:59;;;;;;;19.50;16.17;;;;;;;1.38;59.28;101289.44;2089780;28;20215;-77
2022/03/08 03:38:00;;;;;;;19.90;17.07;;;;;;;2.80;58.41;101530.97;2090476;28;20230;-77
2022/03/08 03:39:00;;;;;;;21.13;17.10;;;;;;;2.81;58.53;101551.69;2089729;28;20237;-77
2022/03/08 03:40:01;;;;;;;21.33;17.83;;;;;;;2.50;58.89;101495.13;2090373;28;20226;-76
2022/03/08 03:41:02;;;;;;;22.47;18.10;;;;;;;2.40;58.03;101468.31;2090337;28;20186;-77
2022/03/08 03:42:03;;;;;;;20.43;17.23;;;;;;;2.81;58.49;101524.34;2089685;28;20190;-76
2022/03/08 03:43:04;;;;;;;21.88;18.67;;;;;;;2.11;58.50;101410.63;2090179;28;20185;-76
2022/03/08 03:44:04;;;;;;;21.83;18.47;;;;;;;2.55;58.40;101467.50;2090235;28;20258;-76
2022/03/08 03:45:06;;;;;;;21.70;18.70;;;;;;;2.12;58.36;101426.69;2090261;28;20616;-76
2022/03/08 03:46:07;;;;;;;23.17;19.73;;;;;;;2.72;57.91;101521.81;2090245;28;20185;-76
2022/03/08 03:47:08;;;;;;;23.80;19.83;;;;;;;2.53;58.46;101524.53;2090090;28;20204;-76
2022/03/08 03:48:08;;;;;;;24.00;20.50;;;;;;;2.36;58.63;101524.88;2090300;28;20181;-76
2022/03/08 03:49:09;;;;;;;25.70;21.20;;;;;;;1.97;59.21;101467.69;2089557;28;20211;-76
2022/03/08 03:50:10;;;;;;;23.80;20.50;;;;;;;2.24;58.77;101541.41;2089562;28;20213;-76
2022/03/08 03:51:11;;;;;;;25.73;21.70;;;;;;;1.72;59.23;101461.63;2089368;28;20252;-76
2022/03/08 03:52:11;;;;;;;25.27;21.35;;;;;;;1.27;59.29;101403.06;2089731;28;20415;-76
2022/03/08 03:53:12;;;;;;;26.10;21.20;;;;;;;1.48;58.59;101411.81;2090125;28;20179;-76
2022/03/08 03:54:13;;;;;;;26.53;22.10;;;;;;;1.15;58.77;101354.03;2090097;28;20178;-76
2022/03/08 03:55:14;;;;;;;26.98;22.45;;;;;;;2.33;59.29;101528.34;2090135;28;20230;-76
2022/03/08 03:56:14;;;;;;;25.47;21.70;;;;;;;2.28;59.19;101531.34;2090040;28;20237;-76
2022/03/08 03:57:15;;;;;;;26.57;21.77;;;;;;;2.35;59.41;101533.44;2090138;28;20223;-76
2022/03/08 03:58:16;;;;;;;26.57;22.27;;;;;;;2.44;59.45;101537.59;2090246;28;20184;-76
2022/03/08 03:59:16;;;;;;;25.17;21.10;;;;;;;2.28;59.12;101495.00;2089625;28;20532;-76
2022/03/08 04:00:17;;;;;;;28.03;21.73;;;;;;;2.60;59.22;101541.09;2090228;28;20227;-76
2022/03/08 04:01:17;;;;;;;25.13;21.70;;;;;;;2.63;59.53;101545.84;2090027;28;20265;-76
2022/03/08 04:02:18;;;;;;;25.50;21.60;;;;;;;2.54;59.65;101512.41;2089632;28;20203;-76
2022/03/08 04:03:19;;;;;;;22.93;19.17;;;;;;;2.56;59.00;101517.53;2089954;28;20183;-77
2022/03/08 04:04:19;;;;;;;23.90;19.70;;;;;;;2.78;58.00;101541.50;2090137;28;20251;-76
2022/03/08 04:05:20;;;;;;;24.73;20.30;;;;;;;2.76;58.44;101532.81;2090202;28;20180;-76
2022/03/08 04:06:20;;;;;;;23.80;19.53;;;;;;;2.88;58.42;101546.41;2090190;28;20385;-76
2022/03/08 04:07:21;;;;;;;24.07;20.47;;;;;;;2.90;58.67;101550.38;2089994;28;20232;-76
2022/03/08 04:08:21;;;;;;;25.80;21.10;;;;;;;2.98;58.96;101584.19;2090113;28;20247;-76
2022/03/08 04:09:22;;;;;;;26.63;21.10;;;;;;;3.04;58.22;101547.13;2089511;28;20258;-76
2022/03/08 04:10:22;;;;;;;21.87;19.17;;;;;;;2.89;57.75;101529.63;2090103;28;20189;-76
2022/03/08 04:11:23;;;;;;;21.10;18.80;;;;;;;2.92;57.07;101571.91;2090005;28;20173;-76
2022/03/08 04:12:23;;;;;;;24.00;19.33;;;;;;;3.04;57.38;101552.63;2088955;28;20221;-76
2022/03/08 04:13:24;;;;;;;22.67;19.17;;;;;;;2.76;56.29;101524.63;2089353;28;20238;-77
2022/03/08 04:14:43;;;;;;;24.23;19.67;;;;;;;3.11;57.15;101564.50;2090182;28;20189;-76
2022/03/08 04:15:45;;;;;;;22.60;18.77;;;;;;;3.17;56.83;101565.00;2090018;28;20607;-76
2022/03/08 04:16:46;;;;;;;22.38;18.98;;;;;;;2.85;56.80;101517.00;2089943;28;20184;-76
2022/03/08 04:17:46;;;;;;;22.20;18.87;;;;;;;3.10;56.55;101562.13;2090083;28;20176;-77
2022/03/08 04:18:47;;;;;;;20.63;17.83;;;;;;;3.12;56.79;101570.75;2089821;28;20234;-76
2022/03/08 04:19:47;;;;;;;23.70;19.37;;;;;;;3.15;56.64;101568.13;2089749;28;20192;-77
2022/03/08 04:20:48;;;;;;;22.17;18.73;;;;;;;3.16;56.44;101563.44;2089713;28;20182;-76
2022/03/08 04:21:49;;;;;;;23.83;19.87;;;;;;;3.00;57.06;101549.81;2089228;28;20192;-76
2022/03/08 04:22:49;;;;;;;23.70;19.17;;;;;;;3.08;56.22;101569.91;2089855;28;20422;-76
2022/03/08 04:23:50;;;;;;;22.47;18.97;;;;;;;2.27;56.88;101457.88;2090028;28;20197;-77
2022/03/08 04:24:50;;;;;;;23.97;19.07;;;;;;;3.05;56.92;101573.38;2089838;28;20190;-76
2022/03/08 04:25:51;;;;;;;22.00;18.53;;;;;;;2.59;56.94;101516.81;2090039;28;20278;-76
2022/03/08 04:26:52;;;;;;;21.23;17.90;;;;;;;2.27;56.50;101466.84;2089788;28;20181;-76
2022/03/08 04:27:52;;;;;;;23.50;18.87;;;;;;;3.01;56.93;101573.28;2090056;28;20241;-76
2022/03/08 04:28:53;;;;;;;23.20;18.90;;;;;;;2.42;56.77;101471.47;2089497;28;20264;-76
2022/03/08 04:29:53;;;;;;;22.80;18.87;;;;;;;3.00;55.73;101570.91;2089854;28;20267;-76
2022/03/08 04:30:54;;;;;;;22.67;19.47;;;;;;;2.95;56.95;101577.47;2089872;28;20237;-76
2022/03/08 04:31:54;;;;;;;25.33;20.33;;;;;;;2.97;55.80;101568.91;2089426;28;20172;-77
2022/03/08 04:32:55;;;;;;;23.37;19.17;;;;;;;2.97;56.63;101575.16;2089861;28;20221;-76
2022/03/08 04:33:55;;;;;;;24.03;20.00;;;;;;;2.40;56.11;101495.69;2089884;28;20192;-76
2022/03/08 04:34:56;;;;;;;23.07;19.53;;;;;;;2.85;56.40;101571.75;2089851;28;20173;-77
2022/03/08 04:35:56;;;;;;;23.00;19.53;;;;;;;2.83;56.64;101561.16;2089980;28;20177;-76
2022/03/08 04:36:57;;;;;;;25.40;19.37;;;;;;;3.00;56.39;101570.91;2089118;28;20184;-76
2022/03/08 04:37:57;;;;;;;23.73;19.03;;;;;;;2.66;56.00;101503.28;2089215;28;20176;-76
2022/03/08 04:38:58;;;;;;;24.43;19.77;;;;;;;2.87;55.48;101578.44;2089209;28;20250;-77
2022/03/08 04:39:59;;;;;;;24.13;20.53;;;;;;;3.09;55.37;101574.25;2089212;28;20197;-76